sensor_id;sensor_type;location;lat;lon;timestamp;temperature;humidity
13970;DHT22;7057;49.984;8.404;2022-08-05T00:02:15;26.50;99.90
13970;DHT22;7057;49.984;8.404;2022-08-05T00:04:42;26.40;99.90
13970;DHT22;7057;49.984;8.404;2022-08-05T00:07:10;26.30;99.90
13970;DHT22;7057;49.984;8.404;2022-08-05T00:09:37;26.30;99.90
13970;DHT22;7057;49.984;8.404;2022-08-05T00:12:05;26.20;99.90
13970;DHT22;7057;49.984;8.404;2022-08-05T00:14:33;26.10;99.90
13970;DHT22;7057;49.984;8.404;2022-08-05T00:17:00;26.10;99.90
13970;DHT22;7057;49.984;8.404;2022-08-05T00:19:28;26.10;99.90
13970;DHT22;7057;49.984;8.404;2022-08-05T00:21:56;26.10;99.90
13970;DHT22;7057;49.984;8.404;2022-08-05T00:24:23;26.10;99.90
13970;DHT22;7057;49.984;8.404;2022-08-05T00:26:50;26.10;99.90
13970;DHT22;7057;49.984;8.404;2022-08-05T00:29:18;26.10;99.90
13970;DHT22;7057;49.984;8.404;2022-08-05T00:31:45;26.00;99.90
13970;DHT22;7057;49.984;8.404;2022-08-05T00:34:12;25.90;99.90
13970;DHT22;7057;49.984;8.404;2022-08-05T00:36:41;26.00;99.90
13970;DHT22;7057;49.984;8.404;2022-08-05T00:39:08;26.00;99.90
13970;DHT22;7057;49.984;8.404;2022-08-05T00:41:35;26.00;99.90
13970;DHT22;7057;49.984;8.404;2022-08-05T00:44:03;25.90;99.90
13970;DHT22;7057;49.984;8.404;2022-08-05T00:46:31;25.90;99.90
13970;DHT22;7057;49.984;8.404;2022-08-05T00:48:58;25.90;99.90
13970;DHT22;7057;49.984;8.404;2022-08-05T00:51:25;25.90;99.90
13970;DHT22;7057;49.984;8.404;2022-08-05T00:53:53;25.90;99.90
13970;DHT22;7057;49.984;8.404;2022-08-05T00:56:21;25.90;99.90
13970;DHT22;7057;49.984;8.404;2022-08-05T00:58:48;25.90;99.90
13970;DHT22;7057;49.984;8.404;2022-08-05T01:01:15;25.80;99.90
13970;DHT22;7057;49.984;8.404;2022-08-05T01:03:42;25.90;99.90
13970;DHT22;7057;49.984;8.404;2022-08-05T01:06:10;25.90;99.90
13970;DHT22;7057;49.984;8.404;2022-08-05T01:08:38;25.90;99.90
13970;DHT22;7057;49.984;8.404;2022-08-05T01:11:11;25.80;99.90
13970;DHT22;7057;49.984;8.404;2022-08-05T01:13:46;25.90;99.90
13970;DHT22;7057;49.984;8.404;2022-08-05T01:16:21;25.90;99.90
13970;DHT22;7057;49.984;8.404;2022-08-05T01:18:54;25.80;99.90
13970;DHT22;7057;49.984;8.404;2022-08-05T01:21:49;25.80;99.90
13970;DHT22;7057;49.984;8.404;2022-08-05T01:24:45;25.70;99.90
13970;DHT22;7057;49.984;8.404;2022-08-05T01:27:28;25.70;99.90
13970;DHT22;7057;49.984;8.404;2022-08-05T01:30:02;25.70;99.90
13970;DHT22;7057;49.984;8.404;2022-08-05T01:32:32;25.60;99.90
13970;DHT22;7057;49.984;8.404;2022-08-05T01:35:03;25.50;99.90
13970;DHT22;7057;49.984;8.404;2022-08-05T01:37:36;25.50;99.90
13970;DHT22;7057;49.984;8.404;2022-08-05T01:40:05;25.50;99.90
13970;DHT22;7057;49.984;8.404;2022-08-05T01:42:35;25.40;99.90
13970;DHT22;7057;49.984;8.404;2022-08-05T01:45:07;25.40;99.90
13970;DHT22;7057;49.984;8.404;2022-08-05T01:47:35;25.20;99.90
13970;DHT22;7057;49.984;8.404;2022-08-05T01:50:04;25.10;99.90
13970;DHT22;7057;49.984;8.404;2022-08-05T01:52:36;25.00;99.90
13970;DHT22;7057;49.984;8.404;2022-08-05T01:55:07;24.90;99.90
13970;DHT22;7057;49.984;8.404;2022-08-05T01:57:39;24.90;99.90
13970;DHT22;7057;49.984;8.404;2022-08-05T02:00:09;24.90;99.90
13970;DHT22;7057;49.984;8.404;2022-08-05T02:02:40;24.80;99.90
13970;DHT22;7057;49.984;8.404;2022-08-05T02:05:11;24.80;99.90
13970;DHT22;7057;49.984;8.404;2022-08-05T02:07:39;24.80;99.90
13970;DHT22;7057;49.984;8.404;2022-08-05T02:10:08;24.70;99.90
13970;DHT22;7057;49.984;8.404;2022-08-05T02:12:40;24.70;99.90
13970;DHT22;7057;49.984;8.404;2022-08-05T02:15:14;24.70;99.90
13970;DHT22;7057;49.984;8.404;2022-08-05T02:17:48;24.70;99.90
13970;DHT22;7057;49.984;8.404;2022-08-05T02:20:20;24.60;99.90
13970;DHT22;7057;49.984;8.404;2022-08-05T02:22:54;24.60;99.90
13970;DHT22;7057;49.984;8.404;2022-08-05T02:25:24;24.50;99.90
13970;DHT22;7057;49.984;8.404;2022-08-05T02:27:54;24.50;99.90
13970;DHT22;7057;49.984;8.404;2022-08-05T02:30:24;24.30;99.90
13970;DHT22;7057;49.984;8.404;2022-08-05T02:32:54;24.10;99.90
13970;DHT22;7057;49.984;8.404;2022-08-05T02:35:24;23.90;99.90
13970;DHT22;7057;49.984;8.404;2022-08-05T02:37:54;23.60;99.90
13970;DHT22;7057;49.984;8.404;2022-08-05T02:40:23;23.60;99.90
13970;DHT22;7057;49.984;8.404;2022-08-05T02:42:52;23.40;99.90
13970;DHT22;7057;49.984;8.404;2022-08-05T02:45:20;23.10;99.90
13970;DHT22;7057;49.984;8.404;2022-08-05T02:47:50;22.80;99.90
13970;DHT22;7057;49.984;8.404;2022-08-05T02:50:20;22.70;99.90
13970;DHT22;7057;49.984;8.404;2022-08-05T02:52:48;22.70;99.90
13970;DHT22;7057;49.984;8.404;2022-08-05T02:55:16;22.70;99.90
13970;DHT22;7057;49.984;8.404;2022-08-05T02:57:44;22.60;99.90
13970;DHT22;7057;49.984;8.404;2022-08-05T03:00:13;22.70;99.90
13970;DHT22;7057;49.984;8.404;2022-08-05T03:02:43;22.80;99.90
13970;DHT22;7057;49.984;8.404;2022-08-05T03:05:13;22.80;99.90
13970;DHT22;7057;49.984;8.404;2022-08-05T03:07:41;22.80;99.90
13970;DHT22;7057;49.984;8.404;2022-08-05T03:10:09;22.70;99.90
13970;DHT22;7057;49.984;8.404;2022-08-05T03:12:38;22.60;99.90
13970;DHT22;7057;49.984;8.404;2022-08-05T03:15:08;22.50;99.90
13970;DHT22;7057;49.984;8.404;2022-08-05T03:17:36;22.40;99.90
13970;DHT22;7057;49.984;8.404;2022-08-05T03:20:04;22.40;99.90
13970;DHT22;7057;49.984;8.404;2022-08-05T03:22:33;22.30;99.90
13970;DHT22;7057;49.984;8.404;2022-08-05T03:25:00;22.30;99.90
13970;DHT22;7057;49.984;8.404;2022-08-05T03:27:28;22.40;99.90
13970;DHT22;7057;49.984;8.404;2022-08-05T03:29:55;22.30;99.90
13970;DHT22;7057;49.984;8.404;2022-08-05T03:32:23;22.20;99.90
13970;DHT22;7057;49.984;8.404;2022-08-05T03:34:51;22.00;99.90
13970;DHT22;7057;49.984;8.404;2022-08-05T03:37:19;21.90;99.90
13970;DHT22;7057;49.984;8.404;2022-08-05T03:39:56;22.00;99.90
13970;DHT22;7057;49.984;8.404;2022-08-05T03:42:24;21.90;99.90
13970;DHT22;7057;49.984;8.404;2022-08-05T03:44:51;21.90;99.90
13970;DHT22;7057;49.984;8.404;2022-08-05T03:47:18;21.90;99.90
13970;DHT22;7057;49.984;8.404;2022-08-05T03:49:45;22.00;99.90
13970;DHT22;7057;49.984;8.404;2022-08-05T03:52:21;22.00;99.90
13970;DHT22;7057;49.984;8.404;2022-08-05T03:54:56;22.10;99.90
13970;DHT22;7057;49.984;8.404;2022-08-05T03:57:27;22.00;99.90
13970;DHT22;7057;49.984;8.404;2022-08-05T04:00:02;22.00;99.90
13970;DHT22;7057;49.984;8.404;2022-08-05T04:02:31;22.00;99.90
13970;DHT22;7057;49.984;8.404;2022-08-05T04:05:00;22.10;99.90
13970;DHT22;7057;49.984;8.404;2022-08-05T04:07:28;22.10;99.90
13970;DHT22;7057;49.984;8.404;2022-08-05T04:09:57;22.00;99.90
13970;DHT22;7057;49.984;8.404;2022-08-05T04:12:25;21.90;99.90
13970;DHT22;7057;49.984;8.404;2022-08-05T04:14:53;21.90;99.90
13970;DHT22;7057;49.984;8.404;2022-08-05T04:17:20;21.90;99.90
13970;DHT22;7057;49.984;8.404;2022-08-05T04:19:48;21.90;99.90
13970;DHT22;7057;49.984;8.404;2022-08-05T04:22:15;21.90;99.90
13970;DHT22;7057;49.984;8.404;2022-08-05T04:24:43;22.00;99.90
13970;DHT22;7057;49.984;8.404;2022-08-05T04:27:12;22.00;99.90
13970;DHT22;7057;49.984;8.404;2022-08-05T04:29:40;22.00;99.90
13970;DHT22;7057;49.984;8.404;2022-08-05T04:32:08;22.00;99.90
13970;DHT22;7057;49.984;8.404;2022-08-05T04:34:35;22.00;99.90
13970;DHT22;7057;49.984;8.404;2022-08-05T04:37:03;21.90;99.90
13970;DHT22;7057;49.984;8.404;2022-08-05T04:39:30;21.90;99.90
13970;DHT22;7057;49.984;8.404;2022-08-05T04:41:58;21.90;99.90
13970;DHT22;7057;49.984;8.404;2022-08-05T04:44:26;21.90;99.90
13970;DHT22;7057;49.984;8.404;2022-08-05T04:46:54;22.00;99.90
13970;DHT22;7057;49.984;8.404;2022-08-05T04:49:21;21.90;99.90
13970;DHT22;7057;49.984;8.404;2022-08-05T04:51:48;21.90;99.90
13970;DHT22;7057;49.984;8.404;2022-08-05T04:54:15;22.00;99.90
13970;DHT22;7057;49.984;8.404;2022-08-05T04:56:44;22.00;99.90
13970;DHT22;7057;49.984;8.404;2022-08-05T04:59:12;22.10;99.90
13970;DHT22;7057;49.984;8.404;2022-08-05T05:01:42;22.20;99.90
13970;DHT22;7057;49.984;8.404;2022-08-05T05:04:09;22.20;99.90
13970;DHT22;7057;49.984;8.404;2022-08-05T05:06:36;22.20;99.90
13970;DHT22;7057;49.984;8.404;2022-08-05T05:09:03;22.20;99.90
13970;DHT22;7057;49.984;8.404;2022-08-05T05:11:31;22.20;99.90
13970;DHT22;7057;49.984;8.404;2022-08-05T05:13:58;22.20;99.90
13970;DHT22;7057;49.984;8.404;2022-08-05T05:16:25;22.20;99.90
13970;DHT22;7057;49.984;8.404;2022-08-05T05:18:53;22.30;99.90
13970;DHT22;7057;49.984;8.404;2022-08-05T05:21:21;22.30;99.90
13970;DHT22;7057;49.984;8.404;2022-08-05T05:23:48;22.30;99.90
13970;DHT22;7057;49.984;8.404;2022-08-05T05:26:15;22.40;99.90
13970;DHT22;7057;49.984;8.404;2022-08-05T05:28:42;22.40;99.90
13970;DHT22;7057;49.984;8.404;2022-08-05T05:31:09;22.50;99.90
13970;DHT22;7057;49.984;8.404;2022-08-05T05:33:36;22.50;99.90
13970;DHT22;7057;49.984;8.404;2022-08-05T05:36:05;22.40;99.90
13970;DHT22;7057;49.984;8.404;2022-08-05T05:38:33;22.40;99.90
13970;DHT22;7057;49.984;8.404;2022-08-05T05:41:00;22.40;99.90
13970;DHT22;7057;49.984;8.404;2022-08-05T05:43:27;22.40;99.90
13970;DHT22;7057;49.984;8.404;2022-08-05T05:45:54;22.40;99.90
13970;DHT22;7057;49.984;8.404;2022-08-05T05:48:21;22.50;99.90
13970;DHT22;7057;49.984;8.404;2022-08-05T05:50:50;22.60;99.90
13970;DHT22;7057;49.984;8.404;2022-08-05T05:53:19;22.60;99.90
13970;DHT22;7057;49.984;8.404;2022-08-05T05:55:46;22.70;99.90
13970;DHT22;7057;49.984;8.404;2022-08-05T05:58:14;22.80;99.90
13970;DHT22;7057;49.984;8.404;2022-08-05T06:00:41;22.90;99.90
13970;DHT22;7057;49.984;8.404;2022-08-05T06:03:08;23.00;99.90
13970;DHT22;7057;49.984;8.404;2022-08-05T06:05:35;23.00;99.90
13970;DHT22;7057;49.984;8.404;2022-08-05T06:08:03;23.10;99.90
13970;DHT22;7057;49.984;8.404;2022-08-05T06:10:31;23.00;99.90
13970;DHT22;7057;49.984;8.404;2022-08-05T06:12:59;23.00;99.90
13970;DHT22;7057;49.984;8.404;2022-08-05T06:15:26;23.10;99.90
13970;DHT22;7057;49.984;8.404;2022-08-05T06:17:54;23.10;99.90
13970;DHT22;7057;49.984;8.404;2022-08-05T06:20:21;23.10;99.90
13970;DHT22;7057;49.984;8.404;2022-08-05T06:22:48;23.20;99.90
13970;DHT22;7057;49.984;8.404;2022-08-05T06:25:15;23.30;99.90
13970;DHT22;7057;49.984;8.404;2022-08-05T06:27:44;23.40;99.90
13970;DHT22;7057;49.984;8.404;2022-08-05T06:30:11;23.40;99.90
13970;DHT22;7057;49.984;8.404;2022-08-05T06:32:40;23.40;99.90
13970;DHT22;7057;49.984;8.404;2022-08-05T06:35:08;23.30;99.90
13970;DHT22;7057;49.984;8.404;2022-08-05T06:37:36;23.40;99.90
13970;DHT22;7057;49.984;8.404;2022-08-05T06:40:04;23.30;99.90
13970;DHT22;7057;49.984;8.404;2022-08-05T06:42:31;23.40;99.90
13970;DHT22;7057;49.984;8.404;2022-08-05T06:45:00;23.30;99.90
13970;DHT22;7057;49.984;8.404;2022-08-05T06:47:27;23.20;99.90
13970;DHT22;7057;49.984;8.404;2022-08-05T06:49:54;23.30;99.90
13970;DHT22;7057;49.984;8.404;2022-08-05T06:52:21;23.40;99.90
13970;DHT22;7057;49.984;8.404;2022-08-05T06:54:48;23.50;99.90
13970;DHT22;7057;49.984;8.404;2022-08-05T06:57:15;23.60;99.90
13970;DHT22;7057;49.984;8.404;2022-08-05T06:59:43;23.60;99.90
13970;DHT22;7057;49.984;8.404;2022-08-05T07:02:11;23.60;99.90
13970;DHT22;7057;49.984;8.404;2022-08-05T07:04:38;23.40;99.90
13970;DHT22;7057;49.984;8.404;2022-08-05T07:07:06;23.20;99.90
13970;DHT22;7057;49.984;8.404;2022-08-05T07:09:33;23.20;99.90
13970;DHT22;7057;49.984;8.404;2022-08-05T07:12:00;23.20;99.90
13970;DHT22;7057;49.984;8.404;2022-08-05T07:14:27;23.20;99.90
13970;DHT22;7057;49.984;8.404;2022-08-05T07:17:13;23.10;99.90
13970;DHT22;7057;49.984;8.404;2022-08-05T07:19:40;23.10;99.90
13970;DHT22;7057;49.984;8.404;2022-08-05T07:22:07;23.10;99.90
13970;DHT22;7057;49.984;8.404;2022-08-05T07:24:34;23.20;99.90
13970;DHT22;7057;49.984;8.404;2022-08-05T07:27:02;23.30;99.90
13970;DHT22;7057;49.984;8.404;2022-08-05T07:29:29;23.40;99.90
13970;DHT22;7057;49.984;8.404;2022-08-05T07:31:56;23.40;99.90
13970;DHT22;7057;49.984;8.404;2022-08-05T07:34:24;23.40;99.90
13970;DHT22;7057;49.984;8.404;2022-08-05T07:36:52;23.30;99.90
13970;DHT22;7057;49.984;8.404;2022-08-05T07:39:19;23.30;99.90
13970;DHT22;7057;49.984;8.404;2022-08-05T07:41:46;23.40;99.90
13970;DHT22;7057;49.984;8.404;2022-08-05T07:44:13;23.30;99.90
13970;DHT22;7057;49.984;8.404;2022-08-05T07:46:40;23.50;99.90
13970;DHT22;7057;49.984;8.404;2022-08-05T07:49:07;23.70;99.90
13970;DHT22;7057;49.984;8.404;2022-08-05T07:51:36;23.80;99.90
13970;DHT22;7057;49.984;8.404;2022-08-05T07:54:04;23.90;99.90
13970;DHT22;7057;49.984;8.404;2022-08-05T07:56:32;23.80;99.90
13970;DHT22;7057;49.984;8.404;2022-08-05T07:58:59;23.60;99.90
13970;DHT22;7057;49.984;8.404;2022-08-05T08:01:26;23.90;99.90
13970;DHT22;7057;49.984;8.404;2022-08-05T08:03:53;24.00;99.90
13970;DHT22;7057;49.984;8.404;2022-08-05T08:06:20;24.20;99.90
13970;DHT22;7057;49.984;8.404;2022-08-05T08:08:49;24.40;99.90
13970;DHT22;7057;49.984;8.404;2022-08-05T08:11:16;24.50;99.90
13970;DHT22;7057;49.984;8.404;2022-08-05T08:13:43;24.40;99.90
13970;DHT22;7057;49.984;8.404;2022-08-05T08:16:10;24.50;99.90
13970;DHT22;7057;49.984;8.404;2022-08-05T08:18:38;24.40;99.90
13970;DHT22;7057;49.984;8.404;2022-08-05T08:21:05;24.40;99.90
13970;DHT22;7057;49.984;8.404;2022-08-05T08:23:32;24.50;99.90
13970;DHT22;7057;49.984;8.404;2022-08-05T08:26:01;24.40;99.90
13970;DHT22;7057;49.984;8.404;2022-08-05T08:28:29;24.20;99.90
13970;DHT22;7057;49.984;8.404;2022-08-05T08:30:56;24.30;99.90
13970;DHT22;7057;49.984;8.404;2022-08-05T08:33:23;24.40;99.90
13970;DHT22;7057;49.984;8.404;2022-08-05T08:35:50;24.40;99.90
13970;DHT22;7057;49.984;8.404;2022-08-05T08:38:17;24.60;99.90
13970;DHT22;7057;49.984;8.404;2022-08-05T08:40:45;24.70;99.90
13970;DHT22;7057;49.984;8.404;2022-08-05T08:43:15;24.90;99.90
13970;DHT22;7057;49.984;8.404;2022-08-05T08:45:44;25.10;99.90
13970;DHT22;7057;49.984;8.404;2022-08-05T08:48:14;25.10;99.90
13970;DHT22;7057;49.984;8.404;2022-08-05T08:50:43;25.30;99.90
13970;DHT22;7057;49.984;8.404;2022-08-05T08:53:11;25.40;99.90
13970;DHT22;7057;49.984;8.404;2022-08-05T08:55:41;25.30;99.90
13970;DHT22;7057;49.984;8.404;2022-08-05T08:58:09;25.30;99.90
13970;DHT22;7057;49.984;8.404;2022-08-05T09:00:39;25.20;99.90
13970;DHT22;7057;49.984;8.404;2022-08-05T09:03:07;25.30;99.90
13970;DHT22;7057;49.984;8.404;2022-08-05T09:05:36;25.50;99.90
13970;DHT22;7057;49.984;8.404;2022-08-05T09:08:03;25.50;99.90
13970;DHT22;7057;49.984;8.404;2022-08-05T09:10:31;25.50;99.90
13970;DHT22;7057;49.984;8.404;2022-08-05T09:12:58;25.60;99.90
13970;DHT22;7057;49.984;8.404;2022-08-05T09:15:25;25.70;99.90
13970;DHT22;7057;49.984;8.404;2022-08-05T09:17:54;25.60;99.90
13970;DHT22;7057;49.984;8.404;2022-08-05T09:20:21;25.40;99.90
13970;DHT22;7057;49.984;8.404;2022-08-05T09:23:09;25.00;99.90
13970;DHT22;7057;49.984;8.404;2022-08-05T09:25:38;25.00;99.90
13970;DHT22;7057;49.984;8.404;2022-08-05T09:28:10;24.80;99.90
13970;DHT22;7057;49.984;8.404;2022-08-05T09:30:41;24.50;99.90
13970;DHT22;7057;49.984;8.404;2022-08-05T09:33:10;24.60;99.90
13970;DHT22;7057;49.984;8.404;2022-08-05T09:35:39;24.70;99.90
13970;DHT22;7057;49.984;8.404;2022-08-05T09:38:18;24.70;99.90
13970;DHT22;7057;49.984;8.404;2022-08-05T09:40:45;24.60;99.90
13970;DHT22;7057;49.984;8.404;2022-08-05T09:43:25;24.60;99.90
13970;DHT22;7057;49.984;8.404;2022-08-05T09:45:52;24.80;99.90
13970;DHT22;7057;49.984;8.404;2022-08-05T09:48:26;24.70;99.90
13970;DHT22;7057;49.984;8.404;2022-08-05T09:50:56;24.70;99.90
13970;DHT22;7057;49.984;8.404;2022-08-05T09:53:25;24.70;99.90
13970;DHT22;7057;49.984;8.404;2022-08-05T09:55:54;24.80;99.90
13970;DHT22;7057;49.984;8.404;2022-08-05T09:58:21;24.80;99.90
13970;DHT22;7057;49.984;8.404;2022-08-05T10:00:54;24.70;99.90
13970;DHT22;7057;49.984;8.404;2022-08-05T10:03:22;24.70;99.90
13970;DHT22;7057;49.984;8.404;2022-08-05T10:06:08;24.80;99.90
13970;DHT22;7057;49.984;8.404;2022-08-05T10:08:36;24.90;99.90
13970;DHT22;7057;49.984;8.404;2022-08-05T10:11:11;24.90;99.90
13970;DHT22;7057;49.984;8.404;2022-08-05T10:13:39;24.90;99.90
13970;DHT22;7057;49.984;8.404;2022-08-05T10:16:27;24.80;99.90
13970;DHT22;7057;49.984;8.404;2022-08-05T10:18:55;24.90;99.90
13970;DHT22;7057;49.984;8.404;2022-08-05T10:21:23;24.90;99.90
13970;DHT22;7057;49.984;8.404;2022-08-05T10:23:51;24.80;99.90
13970;DHT22;7057;49.984;8.404;2022-08-05T10:26:18;24.90;99.90
13970;DHT22;7057;49.984;8.404;2022-08-05T10:28:46;25.00;99.90
13970;DHT22;7057;49.984;8.404;2022-08-05T10:31:15;25.20;99.90
13970;DHT22;7057;49.984;8.404;2022-08-05T10:33:43;25.20;99.90
13970;DHT22;7057;49.984;8.404;2022-08-05T10:36:10;25.10;99.90
13970;DHT22;7057;49.984;8.404;2022-08-05T10:38:41;25.20;99.90
13970;DHT22;7057;49.984;8.404;2022-08-05T10:41:15;25.10;99.90
13970;DHT22;7057;49.984;8.404;2022-08-05T10:43:50;25.30;99.90
13970;DHT22;7057;49.984;8.404;2022-08-05T10:46:19;25.40;99.90
13970;DHT22;7057;49.984;8.404;2022-08-05T10:48:48;25.40;99.90
13970;DHT22;7057;49.984;8.404;2022-08-05T10:51:17;25.70;99.90
13970;DHT22;7057;49.984;8.404;2022-08-05T10:53:52;25.70;99.90
13970;DHT22;7057;49.984;8.404;2022-08-05T10:56:21;25.70;99.90
13970;DHT22;7057;49.984;8.404;2022-08-05T11:01:36;26.20;99.90
13970;DHT22;7057;49.984;8.404;2022-08-05T11:04:08;26.20;99.90
13970;DHT22;7057;49.984;8.404;2022-08-05T11:07:04;26.10;99.90
13970;DHT22;7057;49.984;8.404;2022-08-05T11:09:41;25.70;99.90
13970;DHT22;7057;49.984;8.404;2022-08-05T11:12:42;25.50;99.90
13970;DHT22;7057;49.984;8.404;2022-08-05T11:15:16;25.30;99.90
13970;DHT22;7057;49.984;8.404;2022-08-05T11:17:45;25.20;99.90
13970;DHT22;7057;49.984;8.404;2022-08-05T11:20:31;25.30;99.90
13970;DHT22;7057;49.984;8.404;2022-08-05T11:22:59;25.20;99.90
13970;DHT22;7057;49.984;8.404;2022-08-05T11:25:32;25.20;99.90
13970;DHT22;7057;49.984;8.404;2022-08-05T11:31:21;25.50;99.90
13970;DHT22;7057;49.984;8.404;2022-08-05T11:33:55;25.70;99.90
13970;DHT22;7057;49.984;8.404;2022-08-05T11:36:41;25.80;99.90
13970;DHT22;7057;49.984;8.404;2022-08-05T11:39:12;26.20;99.90
13970;DHT22;7057;49.984;8.404;2022-08-05T11:41:47;26.20;99.90
13970;DHT22;7057;49.984;8.404;2022-08-05T11:44:16;26.20;99.90
13970;DHT22;7057;49.984;8.404;2022-08-05T11:46:47;26.20;99.90
13970;DHT22;7057;49.984;8.404;2022-08-05T11:49:15;26.40;99.90
13970;DHT22;7057;49.984;8.404;2022-08-05T11:51:43;26.60;99.90
13970;DHT22;7057;49.984;8.404;2022-08-05T11:54:13;26.80;99.90
13970;DHT22;7057;49.984;8.404;2022-08-05T11:56:49;26.70;99.90
13970;DHT22;7057;49.984;8.404;2022-08-05T11:59:19;26.80;99.90
13970;DHT22;7057;49.984;8.404;2022-08-05T12:01:54;27.00;99.90
13970;DHT22;7057;49.984;8.404;2022-08-05T12:04:22;26.70;99.90
13970;DHT22;7057;49.984;8.404;2022-08-05T12:06:50;26.80;99.90
13970;DHT22;7057;49.984;8.404;2022-08-05T12:09:23;26.90;99.90
13970;DHT22;7057;49.984;8.404;2022-08-05T12:11:52;27.00;99.90
13970;DHT22;7057;49.984;8.404;2022-08-05T12:14:19;27.30;99.90
13970;DHT22;7057;49.984;8.404;2022-08-05T12:16:47;27.00;99.90
13970;DHT22;7057;49.984;8.404;2022-08-05T12:19:15;26.70;99.90
13970;DHT22;7057;49.984;8.404;2022-08-05T12:21:46;26.80;99.90
13970;DHT22;7057;49.984;8.404;2022-08-05T12:24:15;26.80;99.90
13970;DHT22;7057;49.984;8.404;2022-08-05T12:26:45;27.20;99.90
13970;DHT22;7057;49.984;8.404;2022-08-05T12:29:16;27.50;99.90
13970;DHT22;7057;49.984;8.404;2022-08-05T12:31:45;27.50;99.90
13970;DHT22;7057;49.984;8.404;2022-08-05T12:34:13;27.40;99.90
13970;DHT22;7057;49.984;8.404;2022-08-05T12:36:41;27.30;99.90
13970;DHT22;7057;49.984;8.404;2022-08-05T12:39:09;27.50;99.90
13970;DHT22;7057;49.984;8.404;2022-08-05T12:41:38;27.70;99.90
13970;DHT22;7057;49.984;8.404;2022-08-05T12:44:08;27.20;99.90
13970;DHT22;7057;49.984;8.404;2022-08-05T12:46:38;26.80;99.90
13970;DHT22;7057;49.984;8.404;2022-08-05T12:49:07;26.90;99.90
13970;DHT22;7057;49.984;8.404;2022-08-05T12:51:46;27.10;99.90
13970;DHT22;7057;49.984;8.404;2022-08-05T12:54:18;27.00;99.90
13970;DHT22;7057;49.984;8.404;2022-08-05T12:56:48;26.80;99.90
13970;DHT22;7057;49.984;8.404;2022-08-05T12:59:18;26.70;99.90
13970;DHT22;7057;49.984;8.404;2022-08-05T13:01:54;26.70;99.90
13970;DHT22;7057;49.984;8.404;2022-08-05T13:04:25;26.80;99.90
13970;DHT22;7057;49.984;8.404;2022-08-05T13:06:56;27.10;99.90
13970;DHT22;7057;49.984;8.404;2022-08-05T13:09:24;26.90;99.90
13970;DHT22;7057;49.984;8.404;2022-08-05T13:12:00;27.10;99.90
13970;DHT22;7057;49.984;8.404;2022-08-05T13:14:33;27.10;99.90
13970;DHT22;7057;49.984;8.404;2022-08-05T13:17:06;27.00;99.90
13970;DHT22;7057;49.984;8.404;2022-08-05T13:19:34;26.90;99.90
13970;DHT22;7057;49.984;8.404;2022-08-05T13:22:02;26.80;99.90
13970;DHT22;7057;49.984;8.404;2022-08-05T13:24:29;26.80;99.90
13970;DHT22;7057;49.984;8.404;2022-08-05T13:26:56;26.90;99.90
13970;DHT22;7057;49.984;8.404;2022-08-05T13:29:24;26.80;99.90
13970;DHT22;7057;49.984;8.404;2022-08-05T13:31:51;26.80;99.90
13970;DHT22;7057;49.984;8.404;2022-08-05T13:34:19;26.70;99.90
13970;DHT22;7057;49.984;8.404;2022-08-05T13:36:46;26.60;99.90
13970;DHT22;7057;49.984;8.404;2022-08-05T13:39:14;26.50;99.90
13970;DHT22;7057;49.984;8.404;2022-08-05T13:41:41;26.50;99.90
13970;DHT22;7057;49.984;8.404;2022-08-05T13:44:08;26.50;99.90
13970;DHT22;7057;49.984;8.404;2022-08-05T13:46:35;26.50;99.90
13970;DHT22;7057;49.984;8.404;2022-08-05T13:49:03;26.40;99.90
13970;DHT22;7057;49.984;8.404;2022-08-05T13:51:32;26.00;99.90
13970;DHT22;7057;49.984;8.404;2022-08-05T13:53:59;25.90;99.90
13970;DHT22;7057;49.984;8.404;2022-08-05T13:56:27;26.00;99.90
13970;DHT22;7057;49.984;8.404;2022-08-05T13:58:54;26.10;99.90
13970;DHT22;7057;49.984;8.404;2022-08-05T14:01:21;26.20;99.90
13970;DHT22;7057;49.984;8.404;2022-08-05T14:03:48;26.20;99.90
13970;DHT22;7057;49.984;8.404;2022-08-05T14:06:29;26.00;99.90
13970;DHT22;7057;49.984;8.404;2022-08-05T14:08:58;25.80;99.90
13970;DHT22;7057;49.984;8.404;2022-08-05T14:11:26;26.10;99.90
13970;DHT22;7057;49.984;8.404;2022-08-05T14:13:55;26.30;99.90
13970;DHT22;7057;49.984;8.404;2022-08-05T14:16:22;26.40;99.90
13970;DHT22;7057;49.984;8.404;2022-08-05T14:18:49;26.40;99.90
13970;DHT22;7057;49.984;8.404;2022-08-05T14:21:17;26.40;99.90
13970;DHT22;7057;49.984;8.404;2022-08-05T14:23:44;26.20;99.90
13970;DHT22;7057;49.984;8.404;2022-08-05T14:26:12;26.00;99.90
13970;DHT22;7057;49.984;8.404;2022-08-05T14:28:40;25.80;99.90
13970;DHT22;7057;49.984;8.404;2022-08-05T14:31:07;25.40;99.90
13970;DHT22;7057;49.984;8.404;2022-08-05T14:33:34;25.30;99.90
13970;DHT22;7057;49.984;8.404;2022-08-05T14:36:03;24.90;99.90
13970;DHT22;7057;49.984;8.404;2022-08-05T14:38:30;24.70;99.90
13970;DHT22;7057;49.984;8.404;2022-08-05T14:40:57;24.50;99.90
13970;DHT22;7057;49.984;8.404;2022-08-05T14:43:26;24.40;99.90
13970;DHT22;7057;49.984;8.404;2022-08-05T14:45:53;24.30;99.90
13970;DHT22;7057;49.984;8.404;2022-08-05T14:48:20;24.30;99.90
13970;DHT22;7057;49.984;8.404;2022-08-05T14:50:48;24.30;99.90
13970;DHT22;7057;49.984;8.404;2022-08-05T14:53:15;24.20;99.90
13970;DHT22;7057;49.984;8.404;2022-08-05T14:55:42;24.10;99.90
13970;DHT22;7057;49.984;8.404;2022-08-05T14:58:09;23.80;99.90
13970;DHT22;7057;49.984;8.404;2022-08-05T15:00:38;23.80;99.90
13970;DHT22;7057;49.984;8.404;2022-08-05T15:03:05;23.60;99.90
13970;DHT22;7057;49.984;8.404;2022-08-05T15:05:33;23.60;99.90
13970;DHT22;7057;49.984;8.404;2022-08-05T15:08:01;23.70;99.90
13970;DHT22;7057;49.984;8.404;2022-08-05T15:10:28;23.80;99.90
13970;DHT22;7057;49.984;8.404;2022-08-05T15:12:56;23.90;99.90
13970;DHT22;7057;49.984;8.404;2022-08-05T15:15:24;24.00;99.90
13970;DHT22;7057;49.984;8.404;2022-08-05T15:17:53;24.00;99.90
13970;DHT22;7057;49.984;8.404;2022-08-05T15:20:20;23.80;99.90
13970;DHT22;7057;49.984;8.404;2022-08-05T15:22:49;23.70;99.90
13970;DHT22;7057;49.984;8.404;2022-08-05T15:25:16;23.70;99.90
13970;DHT22;7057;49.984;8.404;2022-08-05T15:27:43;23.60;99.90
13970;DHT22;7057;49.984;8.404;2022-08-05T15:30:11;23.50;99.90
13970;DHT22;7057;49.984;8.404;2022-08-05T15:32:39;23.40;99.90
13970;DHT22;7057;49.984;8.404;2022-08-05T15:35:08;23.40;99.90
13970;DHT22;7057;49.984;8.404;2022-08-05T15:37:35;23.30;99.90
13970;DHT22;7057;49.984;8.404;2022-08-05T15:40:03;23.20;99.90
13970;DHT22;7057;49.984;8.404;2022-08-05T15:42:30;23.40;99.90
13970;DHT22;7057;49.984;8.404;2022-08-05T15:44:58;23.40;99.90
13970;DHT22;7057;49.984;8.404;2022-08-05T15:47:25;23.30;99.90
13970;DHT22;7057;49.984;8.404;2022-08-05T15:49:53;23.30;99.90
13970;DHT22;7057;49.984;8.404;2022-08-05T15:52:21;23.40;99.90
13970;DHT22;7057;49.984;8.404;2022-08-05T15:54:49;23.50;99.90
13970;DHT22;7057;49.984;8.404;2022-08-05T15:57:17;23.50;99.90
13970;DHT22;7057;49.984;8.404;2022-08-05T15:59:44;23.40;99.90
13970;DHT22;7057;49.984;8.404;2022-08-05T16:02:12;23.30;99.90
13970;DHT22;7057;49.984;8.404;2022-08-05T16:04:39;23.40;99.90